Terminal Aerodrome Forecast
Issued by NWS Melbourne, FL

Home | Current Version | Previous Version | Text Only | Print | Product List | Glossary On
Versions: 1 2 3 4 5 6 7 8 9 10 11 12
902
FTUS42 KMLB 240528
TAFDAB
TAF
KDAB 240528Z 2406/2506 05009KT P6SM SCT020 SCT250
     FM241300 05011KT P6SM VCSH SCT030 SCT250
     FM241600 05014G20KT P6SM VCSH SCT040 BKN120=

USA.gov is the U.S. government's official web portal to all federal, state and local government web resources and services.